createdAt,value
2019-06-01T00:00:35.250Z,71.00
2019-06-01T00:03:12.825Z,70.40
2019-06-01T00:06:08.646Z,70.40
2019-06-01T00:08:57.058Z,70.70
2019-06-01T00:11:39.357Z,70.80
2019-06-01T00:14:34.723Z,71.10
2019-06-01T00:17:24.041Z,71.40
2019-06-01T00:20:00.668Z,71.40
2019-06-01T00:22:49.492Z,71.30
2019-06-01T00:25:25.525Z,71.80
2019-06-01T00:28:13.837Z,71.70
2019-06-01T00:30:49.891Z,71.90
2019-06-01T00:33:38.459Z,71.90
2019-06-01T00:36:14.166Z,71.90
2019-06-01T00:39:03.358Z,71.80
2019-06-01T00:41:40.130Z,72.20
2019-06-01T00:44:28.881Z,72.00
2019-06-01T00:47:11.614Z,72.30
2019-06-01T00:50:07.110Z,72.00
2019-06-01T00:52:55.710Z,72.10
2019-06-01T00:55:37.422Z,71.90
2019-06-01T00:58:33.117Z,73.00
2019-06-01T01:01:29.386Z,73.20
2019-06-01T01:04:17.005Z,73.80
2019-06-01T01:06:53.051Z,73.80
2019-06-01T01:09:42.880Z,73.80
2019-06-01T01:12:18.781Z,73.90
2019-06-01T01:15:06.992Z,74.30
2019-06-01T01:17:44.212Z,74.40
2019-06-01T01:20:33.196Z,74.40
2019-06-01T01:23:15.926Z,74.20
2019-06-01T01:26:03.537Z,74.00
2019-06-01T01:28:38.831Z,74.30
2019-06-01T01:31:28.122Z,74.80
2019-06-01T01:34:16.946Z,74.90
2019-06-01T01:36:54.232Z,75.10
2019-06-01T01:39:43.288Z,75.10
2019-06-01T01:42:19.086Z,75.30
2019-06-01T01:45:08.313Z,75.40
2019-06-01T01:47:50.798Z,75.90
2019-06-01T01:50:34.371Z,76.10
2019-06-01T01:53:16.617Z,76.00
2019-06-01T01:55:59.043Z,75.90
2019-06-01T01:58:40.454Z,76.00
2019-06-01T02:01:23.237Z,75.90
2019-06-01T02:04:06.458Z,76.20
2019-06-01T02:06:49.017Z,76.50
2019-06-01T02:09:30.393Z,76.70
2019-06-01T02:12:12.319Z,76.60
2019-06-01T02:14:55.564Z,76.60
2019-06-01T02:17:44.749Z,76.30
2019-06-01T02:20:26.848Z,76.20
2019-06-01T02:23:08.397Z,76.20
2019-06-01T02:25:51.237Z,76.10
2019-06-01T02:28:40.573Z,76.20
2019-06-01T02:31:39.954Z,76.60
2019-06-01T02:34:06.692Z,76.40
2019-06-01T02:36:56.418Z,76.40
2019-06-01T02:39:32.647Z,76.60
2019-06-01T02:42:22.773Z,76.40
2019-06-01T02:44:59.194Z,76.30
2019-06-01T02:47:47.533Z,76.30
2019-06-01T02:50:24.782Z,76.40
2019-06-01T02:53:14.710Z,76.40
2019-06-01T02:55:57.849Z,76.60
2019-06-01T02:58:45.862Z,76.80
2019-06-01T03:01:27.296Z,76.80
2019-06-01T03:04:17.043Z,76.90
2019-06-01T03:06:53.988Z,76.90
2019-06-01T03:09:50.972Z,77.00
2019-06-01T03:12:42.227Z,76.90
2019-06-01T03:15:18.114Z,77.00
2019-06-01T03:18:08.841Z,77.70
2019-06-01T03:20:46.650Z,76.90
2019-06-01T03:23:36.984Z,77.00
2019-06-01T03:26:20.495Z,76.80
2019-06-01T03:29:16.099Z,77.70
2019-06-01T03:32:33.155Z,77.10
2019-06-01T03:35:01.253Z,76.80
2019-06-01T03:37:37.649Z,76.70
2019-06-01T03:40:25.906Z,77.30
2019-06-01T03:43:02.380Z,78.20
2019-06-01T03:45:51.496Z,78.10
2019-06-01T03:48:27.190Z,78.30
2019-06-01T03:51:16.194Z,77.90
2019-06-01T03:53:51.810Z,78.00
2019-06-01T03:56:41.530Z,78.00
2019-06-01T03:59:17.306Z,77.70
2019-06-01T04:02:07.010Z,77.80
2019-06-01T04:04:43.116Z,78.00
2019-06-01T04:07:31.726Z,78.20
2019-06-01T04:10:08.037Z,78.00
2019-06-01T04:12:56.193Z,78.20
2019-06-01T04:15:32.293Z,78.20
2019-06-01T04:18:20.879Z,78.20
2019-06-01T04:20:56.965Z,78.30
2019-06-01T04:23:45.135Z,78.50
2019-06-01T04:26:20.656Z,78.80
2019-06-01T04:29:10.721Z,78.30
2019-06-01T04:31:53.418Z,77.80
2019-06-01T04:34:49.683Z,77.20
2019-06-01T04:37:46.101Z,77.20
2019-06-01T04:40:41.132Z,77.60
2019-06-01T04:43:36.508Z,77.80
2019-06-01T04:46:32.410Z,77.80
2019-06-01T04:49:21.136Z,78.00
2019-06-01T04:51:56.817Z,78.10
2019-06-01T04:54:45.853Z,78.10
2019-06-01T04:57:28.561Z,78.20
2019-06-01T05:00:27.643Z,78.10
2019-06-01T05:03:13.565Z,78.00
2019-06-01T05:05:55.897Z,77.90
2019-06-01T05:08:51.485Z,77.50
2019-06-01T05:11:47.203Z,77.60
2019-06-01T05:14:36.011Z,77.50
2019-06-01T05:17:13.507Z,77.40
2019-06-01T05:20:02.348Z,76.60
2019-06-01T05:22:38.007Z,77.20
2019-06-01T05:25:28.440Z,76.90
2019-06-01T05:28:04.002Z,76.80
2019-06-01T05:30:53.476Z,76.40
2019-06-01T05:33:37.334Z,76.40
2019-06-01T05:36:19.776Z,76.80
2019-06-01T05:39:01.278Z,75.60
2019-06-01T05:41:44.953Z,75.40
2019-06-01T05:44:26.536Z,75.40
2019-06-01T05:47:08.488Z,75.70
2019-06-01T05:49:56.622Z,75.40
2019-06-01T05:52:32.254Z,75.50
2019-06-01T05:55:21.063Z,75.90
2019-06-01T05:57:56.650Z,75.40
2019-06-01T06:00:55.653Z,74.90
2019-06-01T06:03:39.968Z,74.70
2019-06-01T06:06:22.187Z,73.60
2019-06-01T06:09:21.738Z,73.70
2019-06-01T06:12:17.308Z,73.70
2019-06-01T06:15:13.506Z,73.90
2019-06-01T06:18:02.422Z,74.00
2019-06-01T06:20:44.298Z,72.00
2019-06-01T06:23:40.642Z,70.70
2019-06-01T06:26:35.914Z,71.00
2019-06-01T06:29:23.460Z,69.70
2019-06-01T06:32:05.476Z,68.30
2019-06-01T06:35:01.494Z,67.10
2019-06-01T06:37:48.912Z,66.40
2019-06-01T06:40:51.797Z,66.70
2019-06-01T06:43:40.522Z,66.40
2019-06-01T06:46:23.271Z,67.00
2019-06-01T06:49:19.259Z,66.10
2019-06-01T06:52:08.643Z,66.40
2019-06-01T06:54:44.114Z,65.20
2019-06-01T06:57:32.963Z,65.00
2019-06-01T07:00:08.789Z,65.00
2019-06-01T07:02:58.380Z,63.90
2019-06-01T07:05:34.152Z,61.90
2019-06-01T07:08:23.902Z,62.20
2019-06-01T07:11:06.613Z,62.10
2019-06-01T07:14:01.695Z,63.10
2019-06-01T07:16:49.696Z,63.70
2019-06-01T07:19:32.507Z,60.70
2019-06-01T07:22:23.693Z,60.00
2019-06-01T07:24:59.467Z,58.50
2019-06-01T07:27:47.441Z,59.60
2019-06-01T07:30:30.030Z,57.70
2019-06-01T07:33:26.345Z,56.00
2019-06-01T07:36:16.131Z,55.80
2019-06-01T07:38:58.122Z,55.30
2019-06-01T07:41:46.634Z,55.60
2019-06-01T07:44:24.978Z,54.90
2019-06-01T07:47:15.391Z,53.70
2019-06-01T07:49:51.203Z,55.40
2019-06-01T07:52:41.038Z,55.40
2019-06-01T07:55:16.765Z,56.70
2019-06-01T07:58:05.455Z,57.80
2019-06-01T08:00:41.095Z,55.80
2019-06-01T08:03:33.511Z,54.10
2019-06-01T08:06:07.496Z,51.70
2019-06-01T08:08:56.951Z,53.00
2019-06-01T08:11:52.228Z,55.20
2019-06-01T08:14:48.454Z,55.50
2019-06-01T08:17:36.807Z,54.80
2019-06-01T08:20:19.455Z,54.10
2019-06-01T08:23:07.686Z,53.60
2019-06-01T08:25:43.542Z,52.70
2019-06-01T08:28:32.776Z,51.50
2019-06-01T08:31:08.606Z,50.50
2019-06-01T08:33:57.586Z,49.80
2019-06-01T08:36:33.962Z,49.50
2019-06-01T08:39:23.520Z,48.30
2019-06-01T08:42:11.872Z,47.60
2019-06-01T08:44:47.632Z,48.10
2019-06-01T08:47:37.132Z,49.20
2019-06-01T08:50:20.881Z,49.70
2019-06-01T08:53:02.967Z,49.80
2019-06-01T08:55:45.139Z,49.60
2019-06-01T08:58:28.209Z,49.70
2019-06-01T09:01:09.713Z,49.40
2019-06-01T09:03:58.597Z,48.20
2019-06-01T09:06:35.359Z,47.80
2019-06-01T09:09:24.913Z,48.10
2019-06-01T09:12:13.430Z,48.80
2019-06-01T09:15:08.103Z,48.90
2019-06-01T09:17:56.208Z,50.00
2019-06-01T09:20:39.095Z,50.40
2019-06-01T09:23:29.552Z,48.90
2019-06-01T09:26:05.637Z,49.20
2019-06-01T09:28:53.583Z,48.40
2019-06-01T09:31:30.618Z,48.10
2019-06-01T09:34:19.779Z,48.10
2019-06-01T09:37:02.714Z,47.10
2019-06-01T09:39:45.056Z,46.50
2019-06-01T09:42:35.033Z,46.00
2019-06-01T09:45:16.747Z,45.70
2019-06-01T09:47:58.401Z,44.50
2019-06-01T09:50:40.816Z,45.30
2019-06-01T09:53:22.679Z,44.70
2019-06-01T09:56:04.782Z,44.60
2019-06-01T09:58:46.912Z,43.40
2019-06-01T10:01:30.089Z,44.70
2019-06-01T10:04:18.756Z,43.60
2019-06-01T10:06:54.915Z,44.10
2019-06-01T10:09:49.679Z,43.40
2019-06-01T10:12:40.372Z,43.70
2019-06-01T10:15:36.379Z,42.80
2019-06-01T10:18:32.764Z,44.30
2019-06-01T10:21:20.687Z,44.60
2019-06-01T10:23:56.699Z,44.60
2019-06-01T10:26:46.446Z,44.70
2019-06-01T10:29:28.544Z,39.90
2019-06-01T10:32:16.842Z,40.60
2019-06-01T10:34:52.885Z,43.40
2019-06-01T10:37:41.716Z,42.90
2019-06-01T10:40:18.467Z,41.80
2019-06-01T10:43:06.920Z,40.60
2019-06-01T10:45:44.182Z,40.70
2019-06-01T10:48:33.159Z,42.50
2019-06-01T10:51:10.106Z,42.50
2019-06-01T10:53:59.888Z,41.60
2019-06-01T10:56:42.545Z,39.50
2019-06-01T10:59:25.654Z,41.30
2019-06-01T11:02:07.520Z,42.50
2019-06-01T11:04:50.423Z,42.00
2019-06-01T11:07:32.747Z,42.90
2019-06-01T11:10:15.533Z,41.80
2019-06-01T11:13:10.700Z,38.90
2019-06-01T11:16:06.273Z,40.90
2019-06-01T11:19:01.715Z,42.20
2019-06-01T11:21:51.882Z,42.20
2019-06-01T11:24:33.764Z,42.30
2019-06-01T11:27:30.013Z,42.70
2019-06-01T11:30:19.214Z,42.50
2019-06-01T11:33:01.928Z,43.00
2019-06-01T11:35:57.335Z,41.70
2019-06-01T11:38:52.610Z,43.20
2019-06-01T11:41:48.289Z,43.30
2019-06-01T11:44:44.819Z,44.80
2019-06-01T11:47:34.744Z,44.20
2019-06-01T11:50:11.252Z,43.60
2019-06-01T11:53:00.375Z,41.30
2019-06-01T11:55:37.036Z,40.80
2019-06-01T11:58:28.328Z,42.90
2019-06-01T12:01:11.488Z,44.00
2019-06-01T12:04:02.825Z,43.50
2019-06-01T12:06:46.309Z,44.40
2019-06-01T12:09:28.322Z,44.10
2019-06-01T12:12:12.344Z,42.70
2019-06-01T12:14:54.797Z,43.20
2019-06-01T12:17:32.171Z,43.20
2019-06-01T12:20:22.079Z,43.40
2019-06-01T12:23:05.039Z,42.20
2019-06-01T12:25:53.449Z,42.00
2019-06-01T12:28:35.707Z,42.90
2019-06-01T12:31:26.037Z,43.50
2019-06-01T12:34:01.629Z,44.10
2019-06-01T12:36:50.402Z,40.40
2019-06-01T12:39:26.974Z,40.00
2019-06-01T12:42:15.310Z,42.10
2019-06-01T12:44:52.073Z,42.10
2019-06-01T12:47:41.821Z,42.70
2019-06-01T12:50:17.222Z,42.10
2019-06-01T12:53:06.220Z,42.20
2019-06-01T12:55:50.225Z,41.30
2019-06-01T12:58:42.308Z,40.80
2019-06-01T13:01:19.223Z,42.30
2019-06-01T13:04:08.219Z,42.40
2019-06-01T13:06:54.023Z,43.10
2019-06-01T13:09:35.811Z,42.80
2019-06-01T13:12:17.472Z,42.80
2019-06-01T13:15:02.998Z,41.70
2019-06-01T13:17:45.842Z,38.50
2019-06-01T13:20:28.387Z,41.10
2019-06-01T13:23:12.332Z,43.20
2019-06-01T13:25:55.057Z,44.10
2019-06-01T13:28:39.183Z,43.00
2019-06-01T13:31:27.485Z,43.00
2019-06-01T13:34:11.487Z,43.10
2019-06-01T13:37:00.178Z,42.10
2019-06-01T13:39:49.410Z,42.90
2019-06-01T13:42:29.233Z,43.40
2019-06-01T13:45:15.462Z,43.70
2019-06-01T13:47:57.643Z,43.50
2019-06-01T13:50:41.161Z,42.00
2019-06-01T13:53:29.563Z,42.90
2019-06-01T13:56:07.009Z,42.50
2019-06-01T13:58:56.578Z,41.80
2019-06-01T14:01:32.607Z,41.50
2019-06-01T14:04:22.151Z,41.10
2019-06-01T14:06:57.298Z,41.30
2019-06-01T14:09:45.574Z,41.50
2019-06-01T14:12:27.979Z,42.40
2019-06-01T14:15:13.125Z,42.00
2019-06-01T14:18:02.437Z,41.70
2019-06-01T14:20:38.675Z,41.90
2019-06-01T14:23:27.473Z,42.00
2019-06-01T14:26:03.477Z,42.90
2019-06-01T14:28:52.225Z,42.90
2019-06-01T14:31:27.613Z,42.50
2019-06-01T14:34:17.292Z,41.40
2019-06-01T14:36:59.775Z,41.70
2019-06-01T14:39:48.738Z,41.20
2019-06-01T14:42:24.962Z,41.30
2019-06-01T14:45:15.161Z,41.30
2019-06-01T14:48:03.550Z,42.30
2019-06-01T14:50:45.679Z,42.50
2019-06-01T14:53:28.759Z,42.70
2019-06-01T14:56:11.955Z,42.90
2019-06-01T14:59:02.156Z,43.40
2019-06-01T15:01:37.553Z,42.80
2019-06-01T15:04:25.933Z,42.30
2019-06-01T15:07:01.482Z,43.60
2019-06-01T15:09:50.113Z,43.90
2019-06-01T15:12:26.547Z,42.40
2019-06-01T15:15:16.051Z,41.80
2019-06-01T15:18:11.638Z,43.60
2019-06-01T15:21:02.132Z,44.30
2019-06-01T15:23:38.549Z,43.40
2019-06-01T15:26:28.197Z,44.20
2019-06-01T15:29:10.754Z,42.50
2019-06-01T15:32:06.913Z,42.40
2019-06-01T15:34:57.175Z,41.80
2019-06-01T15:37:32.869Z,41.90
2019-06-01T15:40:21.747Z,42.30
2019-06-01T15:42:57.725Z,42.90
2019-06-01T15:45:46.852Z,42.70
2019-06-01T15:48:29.260Z,42.50
2019-06-01T15:51:18.087Z,42.90
2019-06-01T15:54:01.120Z,43.20
2019-06-01T15:56:49.582Z,42.10
2019-06-01T15:59:39.244Z,41.50
2019-06-01T16:02:35.488Z,40.70
2019-06-01T16:05:24.739Z,41.00
2019-06-01T16:08:00.054Z,41.20
2019-06-01T16:10:49.022Z,41.20
2019-06-01T16:13:24.844Z,41.10
2019-06-01T16:16:14.141Z,40.80
2019-06-01T16:19:08.754Z,41.80
2019-06-01T16:21:58.116Z,42.40
2019-06-01T16:24:40.612Z,41.30
2019-06-01T16:27:35.496Z,40.70
2019-06-01T16:30:31.108Z,40.70
2019-06-01T16:33:26.578Z,41.50
2019-06-01T16:36:22.719Z,41.90
2019-06-01T16:39:16.073Z,41.60
2019-06-01T16:41:51.900Z,41.10
2019-06-01T16:44:40.304Z,41.90
2019-06-01T16:47:22.491Z,41.00
2019-06-01T16:50:15.904Z,42.80
2019-06-01T16:52:51.411Z,42.20
2019-06-01T16:55:41.099Z,43.80
2019-06-01T16:58:23.660Z,43.00
2019-06-01T17:01:12.866Z,41.90
2019-06-01T17:03:48.692Z,42.30
2019-06-01T17:06:38.228Z,42.60
2019-06-01T17:09:16.007Z,43.40
2019-06-01T17:12:05.285Z,44.20
2019-06-01T17:14:42.313Z,43.00
2019-06-01T17:17:32.258Z,43.90
2019-06-01T17:20:44.795Z,43.80
2019-06-01T17:23:40.594Z,44.30
2019-06-01T17:26:31.710Z,44.00
2019-06-01T17:29:08.949Z,44.50
2019-06-01T17:32:15.861Z,45.20
2019-06-01T17:34:41.997Z,44.60
2019-06-01T17:37:39.200Z,44.00
2019-06-01T17:40:37.710Z,44.70
2019-06-01T17:43:13.614Z,45.00
2019-06-01T17:46:02.773Z,45.00
2019-06-01T17:48:39.215Z,44.60
2019-06-01T17:51:31.750Z,44.50
2019-06-01T17:54:12.595Z,44.00
2019-06-01T17:57:09.184Z,44.60
2019-06-01T17:59:57.953Z,44.90
2019-06-01T18:02:40.799Z,45.50
2019-06-01T18:05:30.110Z,45.90
2019-06-01T18:08:06.368Z,46.40
2019-06-01T18:10:55.252Z,47.00
2019-06-01T18:13:32.751Z,46.60
2019-06-01T18:16:22.127Z,46.70
2019-06-01T18:19:06.230Z,46.60
2019-06-01T18:22:02.569Z,47.10
2019-06-01T18:24:57.974Z,47.20
2019-06-01T18:27:54.464Z,47.50
2019-06-01T18:30:41.971Z,47.90
2019-06-01T18:33:24.950Z,48.50
2019-06-01T18:36:20.242Z,48.40
2019-06-01T18:39:07.696Z,48.70
2019-06-01T18:41:43.162Z,48.70
2019-06-01T18:44:31.753Z,48.80
2019-06-01T18:47:29.049Z,49.30
2019-06-01T18:50:14.711Z,49.40
2019-06-01T18:53:08.544Z,49.70
2019-06-01T18:55:57.335Z,50.00
2019-06-01T18:58:39.967Z,50.40
2019-06-01T19:01:36.179Z,51.20
2019-06-01T19:04:31.746Z,50.90
2019-06-01T19:07:27.347Z,51.70
2019-06-01T19:10:23.558Z,51.70
2019-06-01T19:13:18.925Z,51.60
2019-06-01T19:16:08.025Z,52.00
2019-06-01T19:18:43.481Z,51.90
2019-06-01T19:21:38.791Z,52.30
2019-06-01T19:24:35.328Z,52.50
2019-06-01T19:27:23.710Z,52.40
2019-06-01T19:29:59.377Z,52.70
2019-06-01T19:32:49.660Z,53.00
2019-06-01T19:35:25.486Z,53.30
2019-06-01T19:38:15.328Z,53.80
2019-06-01T19:40:51.029Z,54.30
2019-06-01T19:43:39.959Z,54.50
2019-06-01T19:46:15.985Z,54.50
2019-06-01T19:49:04.501Z,54.50
2019-06-01T19:51:45.883Z,54.00
2019-06-01T19:54:27.785Z,54.10
2019-06-01T19:57:10.110Z,53.70
2019-06-01T19:59:53.097Z,53.90
2019-06-01T20:02:35.040Z,54.40
2019-06-01T20:05:18.773Z,54.00
2019-06-01T20:08:07.338Z,54.00
2019-06-01T20:10:42.967Z,53.80
2019-06-01T20:13:38.105Z,54.20
2019-06-01T20:16:33.394Z,54.20
2019-06-01T20:19:22.555Z,54.20
2019-06-01T20:22:17.379Z,54.40
2019-06-01T20:25:06.031Z,54.70
2019-06-01T20:27:42.563Z,54.50
2019-06-01T20:30:31.595Z,54.70
2019-06-01T20:33:20.592Z,55.00
2019-06-01T20:36:10.318Z,55.30
2019-06-01T20:38:45.722Z,55.60
2019-06-01T20:41:34.598Z,55.50
2019-06-01T20:44:18.762Z,55.60
2019-06-01T20:47:14.970Z,55.80
2019-06-01T20:49:56.584Z,55.80
2019-06-01T20:52:45.234Z,55.80
2019-06-01T20:55:27.408Z,55.80
2019-06-01T20:58:16.164Z,55.70
2019-06-01T21:00:52.671Z,55.80
2019-06-01T21:03:41.683Z,55.90
2019-06-01T21:06:24.013Z,56.00
2019-06-01T21:09:06.399Z,56.10
2019-06-01T21:11:48.895Z,56.00
2019-06-01T21:14:39.003Z,56.10
2019-06-01T21:17:16.564Z,56.30
2019-06-01T21:20:05.342Z,56.40
2019-06-01T21:23:01.589Z,56.70
2019-06-01T21:25:51.177Z,57.30
2019-06-01T21:28:35.276Z,57.70
2019-06-01T21:31:30.540Z,58.10
2019-06-01T21:34:20.942Z,58.40
2019-06-01T21:36:57.128Z,58.50
2019-06-01T21:39:46.115Z,58.80
2019-06-01T21:42:21.854Z,59.10
2019-06-01T21:45:12.264Z,58.90
2019-06-01T21:47:47.814Z,58.80
2019-06-01T21:50:36.689Z,58.80
2019-06-01T21:53:26.736Z,58.80
2019-06-01T21:56:02.164Z,58.90
2019-06-01T21:58:50.687Z,59.30
2019-06-01T22:01:32.466Z,59.70
2019-06-01T22:04:14.530Z,59.80
2019-06-01T22:06:56.900Z,60.80
2019-06-01T22:09:46.079Z,60.50
2019-06-01T22:12:23.639Z,60.60
2019-06-01T22:15:12.661Z,61.00
2019-06-01T22:17:48.452Z,60.40
2019-06-01T22:20:37.083Z,60.90
2019-06-01T22:23:19.734Z,60.50
2019-06-01T22:26:15.475Z,60.90
2019-06-01T22:29:04.093Z,60.90
2019-06-01T22:31:46.655Z,61.20
2019-06-01T22:34:41.425Z,61.20
2019-06-01T22:37:36.539Z,61.10
2019-06-01T22:40:24.983Z,61.40
2019-06-01T22:43:07.483Z,61.00
2019-06-01T22:46:03.883Z,61.20
2019-06-01T22:48:52.282Z,61.70
2019-06-01T22:51:29.522Z,61.90
2019-06-01T22:54:18.151Z,61.80
2019-06-01T22:57:00.574Z,61.80
2019-06-01T22:59:42.995Z,62.40
2019-06-01T23:02:25.695Z,62.00
2019-06-01T23:05:08.772Z,63.00
2019-06-01T23:07:50.315Z,63.70
2019-06-01T23:10:35.452Z,63.60
2019-06-01T23:13:30.326Z,63.80
2019-06-01T23:16:27.628Z,63.90
2019-06-01T23:19:16.001Z,64.00
2019-06-01T23:21:58.802Z,63.90
2019-06-01T23:24:55.121Z,63.40
2019-06-01T23:27:37.986Z,62.70
2019-06-01T23:30:28.254Z,62.40
2019-06-01T23:33:03.987Z,62.20
2019-06-01T23:35:52.411Z,62.50
2019-06-01T23:38:28.790Z,62.60
2019-06-01T23:41:17.908Z,62.70
2019-06-01T23:44:10.508Z,64.20
2019-06-01T23:46:44.760Z,63.30
2019-06-01T23:49:27.677Z,63.50
2019-06-01T23:52:10.035Z,62.80
2019-06-01T23:54:59.192Z,62.80
2019-06-01T23:57:41.243Z,63.40
